22. Mai 2022

Uhrzeit Code Wetter Temp. Sichtweite Wolken Wind METAR/SPECI
08:20
L
12 °C 0 m - Var   Var 3 kt METAR ETWM 220620Z AUTO VRB03KT //// // ////// 12/09 Q1018 ///
07:20
L
8 °C 0 m - Var   000° 0 kt METAR ETWM 220520Z AUTO 00000KT //// // ////// 08/08 Q1018 ///
06:20
L
5 °C 0 m - Var   000° 0 kt METAR ETWM 220420Z AUTO 00000KT //// // ////// 05/05 Q1018 ///
05:20
L
5 °C 0 m - Var   000° 0 kt METAR ETWM 220320Z AUTO 00000KT //// // ////// 05/05 Q1018 ///
04:20
L
6 °C 0 m - 260°   260° 2 kt METAR ETWM 220220Z AUTO 26002KT //// // ////// 06/06 Q1019 ///
03:20
L
6 °C 0 m - 250°   250° 1 kt METAR ETWM 220120Z AUTO 25001KT //// // ////// 06/06 Q1018 ///
02:20
L
7 °C 0 m - Var   000° 0 kt METAR ETWM 220020Z AUTO 00000KT //// // ////// 07/07 Q1019 ///
01:20
L
8 °C 0 m - 240°   240° 1 kt METAR ETWM 212320Z AUTO 24001KT //// // ////// 08/07 Q1019 ///
00:20
L
9 °C 0 m - Var   Var 1 kt METAR ETWM 212220Z AUTO VRB01KT //// // ////// 09/08 Q1019 ///

21. Mai 2022

Uhrzeit Code Wetter Temp. Sichtweite Wolken Wind METAR/SPECI
23:20
L
11 °C 0 m - 320°   320° 3 kt METAR ETWM 212120Z AUTO 32003KT //// // ////// 11/07 Q1020 ///
22:20
L
13 °C 0 m - 330°   330° 4 kt METAR ETWM 212020Z AUTO 33004KT //// // ////// 13/07 Q1020 ///
21:20
L
14 °C 0 m - 290°   290° 2 kt METAR ETWM 211920Z AUTO 29002KT //// // ////// 14/08 Q1020 ///
20:20
L
15 °C 0 m - 290°   290° 5 kt METAR ETWM 211820Z AUTO 29005KT //// // ////// 15/08 Q1019 ///
19:20
L
16 °C 0 m - 280°   280° 6 18 kt METAR ETWM 211720Z AUTO 28006G18KT //// // ////// 16/08 Q1019 ///
18:20
L
16 °C 0 m - 270°   270° 8 kt METAR ETWM 211620Z AUTO 27008KT //// // ////// 16/08 Q1019 ///
17:20
L
18 °C 0 m - 290°   290° 7 17 kt METAR ETWM 211520Z AUTO 29007G17KT //// // ////// 18/07 Q1019 ///
16:20
L
18 °C 0 m - 270°   270° 12 22 kt METAR ETWM 211420Z AUTO 27012G22KT //// // ////// 18/06 Q1019 ///
15:20
L
18 °C 0 m - 270°   270° 10 20 kt METAR ETWM 211320Z AUTO 27010G20KT //// // ////// 18/08 Q1019 ///
14:20
L
18 °C 0 m - 290°   290° 9 kt METAR ETWM 211220Z AUTO 29009KT //// // ////// 18/08 Q1019 ///
13:20
L
18 °C 0 m - 280°   280° 10 22 kt METAR ETWM 211120Z AUTO 28010G22KT //// // ////// 18/08 Q1019 ///
12:20
L
17 °C 0 m - 270°   270° 8 18 kt METAR ETWM 211020Z AUTO 27008G18KT //// // ////// 17/09 Q1019 ///
11:20
L
16 °C 0 m - 270°   270° 10 21 kt METAR ETWM 210920Z AUTO 27010G21KT //// // ////// 16/09 Q1018 ///
10:20
L
16 °C 0 m - 260°   260° 10 21 kt METAR ETWM 210820Z AUTO 26010G21KT //// // ////// 16/10 Q1018 ///
09:20
L
15 °C 0 m - 260°   260° 11 kt METAR ETWM 210720Z AUTO 26011KT //// // ////// 15/10 Q1017 ///
08:20
L
14 °C 0 m - 250°   250° 9 kt METAR ETWM 210620Z AUTO 25009KT //// // ////// 14/11 Q1017 ///
07:20
L
13 °C 0 m - 250°   250° 8 19 kt METAR ETWM 210520Z AUTO 25008G19KT //// // ////// 13/11 Q1017 ///
06:20
L
12 °C 0 m - 230°   230° 8 kt METAR ETWM 210420Z AUTO 23008KT //// // ////// 12/10 Q1016 ///
05:20
L
12 °C 0 m - 220°   220° 8 kt METAR ETWM 210320Z AUTO 22008KT //// // ////// 12/10 Q1016 ///
04:20
L
11 °C 0 m - 220°   220° 7 kt METAR ETWM 210220Z AUTO 22007KT //// // ////// 11/10 Q1016 ///
03:20
L
11 °C 0 m - 230°   230° 6 kt METAR ETWM 210120Z AUTO 23006KT //// // ////// 11/10 Q1017 ///
02:20
L
11 °C 0 m - 240°   240° 7 17 kt METAR ETWM 210020Z AUTO 24007G17KT //// // ////// 11/10 Q1017 ///
01:20
L
11 °C 0 m - 260°   260° 6 kt METAR ETWM 202320Z AUTO 26006KT //// // ////// 11/10 Q1017 ///
00:20
L
12 °C 0 m - 270°   270° 6 kt METAR ETWM 202220Z AUTO 27006KT //// // ////// 12/11 Q1016 ///

20. Mai 2022

Uhrzeit Code Wetter Temp. Sichtweite Wolken Wind METAR/SPECI
23:20
L
12 °C 0 m - 270°   270° 7 kt METAR ETWM 202120Z AUTO 27007KT //// // ////// 12/11 Q1015 ///
22:20
L
12 °C 0 m - 280°   280° 6 kt METAR ETWM 202020Z AUTO 28006KT //// // ////// 12/11 Q1014 ///
21:20
L
13 °C 0 m - 270°   270° 9 kt METAR ETWM 201920Z AUTO 27009KT //// // ////// 13/12 Q1013 ///
20:20
L
13 °C 0 m - 330°   330° 9 kt METAR ETWM 201820Z AUTO 33009KT //// // ////// 13/12 Q1011 ///
19:20
L
14 °C 0 m - 340°   340° 6 kt METAR ETWM 201720Z AUTO 34006KT //// // ////// 14/14 Q1009 ///
18:20
L
17 °C 0 m - 180°   180° 9 21 kt METAR ETWM 201620Z AUTO 18009G21KT //// // ////// 17/15 Q1010 ///
17:20
L
17 °C 0 m - 090°   090° 6 kt METAR ETWM 201520Z AUTO 09006KT //// // ////// 17/14 Q1010 ///
16:20
L
18 °C 0 m - 100°   100° 4 kt METAR ETWM 201420Z AUTO 10004KT //// // ////// 18/13 Q1012 ///
15:20
L
21 °C 0 m - 120°   120° 4 kt METAR ETWM 201320Z AUTO 12004KT //// // ////// 21/11 Q1014 ///
14:20
L
20 °C 0 m - 100°   100° 6 kt METAR ETWM 201220Z AUTO 10006KT //// // ////// 20/09 Q1015 ///
13:20
V
19 °C 10 km+ 13.000 ft 100°   100° 5 kt METAR ETWM 201120Z 10005KT 9999 BKN130 BKN250 19/10 Q1017 BLU
12:20
V
18 °C 10 km+ 20.000 ft 130°   130° 3 kt METAR ETWM 201020Z 13003KT 9999 FEW032 SCT140 BKN200 18/09 Q1018 BLU+
11:20
V
16 °C 10 km+ 37.000 ft 030°   030° 4 kt METAR ETWM 200920Z 03004KT 9999 FEW022 BKN370 16/10 Q1019 BLU+
10:20
V
15 °C 10 km+ 36.000 ft 160°   160° 4 kt METAR ETWM 200820Z 16004KT 9999 FEW017 BKN360 15/10 Q1020 BLU+
09:20
M
14 °C 10 km+ 1.500 ft 120°   120° 4 kt METAR ETWM 200720Z 12004KT 9999 BKN015 SCT360 14/10 Q1021 WHT
08:20
M
14 °C 10 km+ 1.500 ft 120°   120° 3 kt METAR ETWM 200620Z 12003KT 9999 BKN015 SCT360 14/10 Q1021 WHT
07:20
M
13 °C 10 km+ 1.300 ft Var   Var 2 kt METAR ETWM 200520Z VRB02KT 9999 BKN013 13/11 Q1022 GRN
Ältere Daten

Laden Sie unsere App herunter

Einfacher Zugriff auf das gesamte Flugwetter auf Ihrem Mobiltelefon und Tablet.
Mit vielen Funktionen, die auf der Website nicht verfügbar sind, wie Offline-Unterstützung und eine persönliche Flughafenliste.

Wir und Dritte verfolgen dein Internetverhalten auf unserer Website mit Cookies. Wenn du fortfährst, gehen wir davon aus, dass du mit unserer Cookie-Richtlinie einverstanden bist. Mehr erfahren